createdAt,value
2022-08-26T00:00:01.677Z,54.11
2022-08-26T00:02:32.438Z,54.46
2022-08-26T00:05:03.552Z,54.69
2022-08-26T00:07:34.176Z,54.66
2022-08-26T00:10:09.215Z,54.75
2022-08-26T00:12:40.544Z,54.36
2022-08-26T00:15:15.477Z,54.49
2022-08-26T00:17:46.386Z,54.72
2022-08-26T00:20:33.503Z,54.35
2022-08-26T00:23:05.360Z,54.56
2022-08-26T00:25:39.115Z,54.48
2022-08-26T00:28:13.322Z,54.35
2022-08-26T00:30:44.060Z,54.42
2022-08-26T00:33:16.723Z,54.57
2022-08-26T00:35:49.269Z,54.42
2022-08-26T00:38:22.853Z,54.33
2022-08-26T00:40:59.408Z,54.43
2022-08-26T00:43:32.759Z,54.67
2022-08-26T00:46:19.386Z,54.88
2022-08-26T00:48:53.166Z,54.60
2022-08-26T00:51:29.817Z,54.90
2022-08-26T00:54:04.881Z,54.79
2022-08-26T00:56:44.413Z,54.99
2022-08-26T00:59:19.662Z,55.17
2022-08-26T01:01:49.798Z,55.54
2022-08-26T01:04:23.764Z,55.42
2022-08-26T01:06:57.683Z,55.47
2022-08-26T01:09:28.229Z,56.04
2022-08-26T01:12:04.784Z,56.12
2022-08-26T01:14:40.223Z,56.10
2022-08-26T01:17:11.885Z,56.37
2022-08-26T01:19:47.224Z,56.29
2022-08-26T01:22:20.439Z,56.48
2022-08-26T01:24:53.986Z,56.23
2022-08-26T01:27:24.836Z,56.30
2022-08-26T01:29:55.190Z,56.17
2022-08-26T01:32:26.229Z,56.42
2022-08-26T01:34:57.283Z,56.76
2022-08-26T01:37:35.293Z,56.85
2022-08-26T01:40:16.928Z,57.01
2022-08-26T01:42:49.186Z,56.69
2022-08-26T01:45:22.471Z,56.71
2022-08-26T01:47:57.147Z,56.91
2022-08-26T01:50:30.734Z,56.98
2022-08-26T01:53:05.918Z,57.09
2022-08-26T01:55:41.693Z,57.00
2022-08-26T01:58:17.911Z,56.82
2022-08-26T02:00:49.311Z,57.02
2022-08-26T02:03:22.904Z,57.28
2022-08-26T02:05:56.199Z,56.82
2022-08-26T02:08:29.987Z,57.50
2022-08-26T02:11:03.895Z,57.85
2022-08-26T02:13:35.916Z,57.75
2022-08-26T02:16:08.414Z,57.60
2022-08-26T02:18:41.363Z,58.15
2022-08-26T02:21:14.549Z,58.03
2022-08-26T02:23:44.786Z,58.36
2022-08-26T02:26:21.123Z,58.56
2022-08-26T02:28:56.053Z,58.29
2022-08-26T02:31:27.254Z,58.55
2022-08-26T02:33:57.250Z,58.33
2022-08-26T02:36:28.958Z,58.49
2022-08-26T02:38:59.290Z,58.43
2022-08-26T02:41:32.040Z,58.43
2022-08-26T02:44:02.776Z,58.71
2022-08-26T02:46:33.042Z,58.85
2022-08-26T02:49:03.544Z,58.82
2022-08-26T02:51:33.977Z,58.91
2022-08-26T02:54:03.883Z,59.34
2022-08-26T02:56:38.082Z,59.07
2022-08-26T02:59:08.509Z,58.89
2022-08-26T03:01:39.188Z,59.10
2022-08-26T03:04:13.215Z,59.18
2022-08-26T03:06:47.105Z,59.30
2022-08-26T03:09:23.364Z,59.25
2022-08-26T03:11:56.170Z,58.96
2022-08-26T03:14:26.526Z,58.79
2022-08-26T03:16:57.202Z,58.93
2022-08-26T03:19:29.310Z,59.08
2022-08-26T03:22:02.223Z,58.90
2022-08-26T03:24:32.595Z,59.12
2022-08-26T03:27:07.379Z,58.82
2022-08-26T03:29:50.508Z,58.63
2022-08-26T03:32:20.762Z,58.69
2022-08-26T03:34:50.867Z,59.18
2022-08-26T03:37:21.701Z,59.55
2022-08-26T03:39:52.103Z,59.26
2022-08-26T03:42:24.597Z,59.38
2022-08-26T03:44:54.699Z,59.35
2022-08-26T03:47:24.855Z,59.54
2022-08-26T03:49:54.978Z,59.81
2022-08-26T03:52:25.181Z,60.48
2022-08-26T03:54:55.426Z,60.47
2022-08-26T03:57:28.515Z,60.43
2022-08-26T03:59:58.292Z,60.58
2022-08-26T04:02:28.857Z,60.71
2022-08-26T04:04:58.675Z,60.51
2022-08-26T04:07:28.565Z,60.49
2022-08-26T04:10:02.351Z,60.90
2022-08-26T04:12:34.880Z,60.99
2022-08-26T04:15:06.096Z,60.80
2022-08-26T04:17:36.368Z,60.69
2022-08-26T04:20:08.494Z,61.10
2022-08-26T04:22:38.961Z,61.21
2022-08-26T04:25:12.017Z,61.01
2022-08-26T04:27:44.423Z,61.31
2022-08-26T04:30:15.859Z,61.72
2022-08-26T04:32:47.067Z,61.43
2022-08-26T04:35:17.805Z,61.24
2022-08-26T04:37:48.963Z,61.58
2022-08-26T04:40:19.254Z,61.22
2022-08-26T04:42:51.753Z,60.84
2022-08-26T04:45:22.861Z,61.08
2022-08-26T04:47:56.478Z,60.63
2022-08-26T04:50:28.491Z,60.61
2022-08-26T04:52:59.222Z,60.46
2022-08-26T04:55:39.728Z,60.38
2022-08-26T04:58:12.511Z,60.39
2022-08-26T05:00:43.224Z,60.94
2022-08-26T05:03:13.184Z,61.06
2022-08-26T05:05:44.127Z,61.06
2022-08-26T05:08:15.687Z,61.32
2022-08-26T05:10:48.321Z,61.37
2022-08-26T05:13:23.145Z,61.10
2022-08-26T05:15:54.361Z,61.26
2022-08-26T05:18:30.037Z,61.45
2022-08-26T05:21:00.151Z,61.51
2022-08-26T05:23:32.048Z,61.76
2022-08-26T05:26:05.052Z,61.69
2022-08-26T05:28:38.200Z,61.85
2022-08-26T05:31:15.469Z,61.82
2022-08-26T05:33:48.411Z,61.53
2022-08-26T05:36:20.590Z,61.54
2022-08-26T05:38:53.002Z,61.40
2022-08-26T05:41:27.651Z,61.70
2022-08-26T05:44:10.357Z,61.56
2022-08-26T05:46:42.592Z,61.74
2022-08-26T05:49:16.136Z,61.68
2022-08-26T05:51:47.764Z,61.22
2022-08-26T05:54:21.894Z,61.40
2022-08-26T05:56:53.453Z,61.77
2022-08-26T05:59:27.045Z,61.82
2022-08-26T06:01:57.371Z,62.13
2022-08-26T06:04:29.205Z,62.03
2022-08-26T06:07:01.012Z,61.80
2022-08-26T06:09:31.787Z,61.77
2022-08-26T06:12:02.836Z,61.70
2022-08-26T06:14:36.118Z,61.77
2022-08-26T06:17:07.074Z,61.55
2022-08-26T06:19:41.456Z,61.97
2022-08-26T06:25:28.736Z,62.02
2022-08-26T06:27:59.147Z,61.48
2022-08-26T06:30:29.625Z,61.87
2022-08-26T06:33:01.760Z,62.06
2022-08-26T06:35:32.019Z,61.75
2022-08-26T06:38:03.095Z,62.29
2022-08-26T06:40:36.588Z,62.11
2022-08-26T06:43:06.751Z,62.17
2022-08-26T06:45:38.428Z,62.02
2022-08-26T06:48:08.468Z,61.98
2022-08-26T06:50:39.929Z,62.15
2022-08-26T06:53:10.720Z,62.30
2022-08-26T06:55:47.253Z,62.17
2022-08-26T06:58:21.934Z,62.36
2022-08-26T07:00:52.054Z,62.25
2022-08-26T07:03:22.363Z,62.39
2022-08-26T07:05:52.651Z,61.63
2022-08-26T07:08:25.047Z,62.33
2022-08-26T07:10:58.110Z,62.45
2022-08-26T07:13:30.751Z,62.03
2022-08-26T07:16:03.030Z,61.82
2022-08-26T07:18:34.110Z,62.13
2022-08-26T07:21:05.097Z,61.69
2022-08-26T07:23:35.608Z,61.69
2022-08-26T07:26:12.125Z,61.60
2022-08-26T07:28:42.013Z,61.62
2022-08-26T07:31:13.852Z,61.65
2022-08-26T07:33:45.183Z,61.50
2022-08-26T07:36:18.819Z,61.28
2022-08-26T07:38:49.209Z,61.39
2022-08-26T07:44:00.320Z,61.28
2022-08-26T07:46:30.851Z,60.91
2022-08-26T07:49:01.460Z,60.83
2022-08-26T07:51:31.836Z,60.47
2022-08-26T07:54:01.697Z,60.33
2022-08-26T07:56:36.402Z,60.77
2022-08-26T07:59:13.616Z,60.19
2022-08-26T08:01:44.775Z,59.64
2022-08-26T08:04:17.272Z,59.98
2022-08-26T08:06:48.236Z,59.61
2022-08-26T08:09:18.470Z,60.10
2022-08-26T08:11:52.623Z,59.15
2022-08-26T08:14:23.116Z,58.85
2022-08-26T08:16:54.983Z,58.72
2022-08-26T08:19:29.915Z,57.86
2022-08-26T08:22:18.029Z,57.92
2022-08-26T08:24:50.162Z,58.10
2022-08-26T08:27:25.772Z,58.31
2022-08-26T08:29:57.286Z,57.23
2022-08-26T08:32:29.591Z,57.09
2022-08-26T08:35:00.414Z,56.43
2022-08-26T08:37:30.492Z,56.50
2022-08-26T08:40:04.164Z,55.94
2022-08-26T08:42:44.352Z,54.61
2022-08-26T08:45:18.478Z,54.73
2022-08-26T08:47:54.027Z,55.17
2022-08-26T08:50:29.919Z,53.86
2022-08-26T08:53:10.759Z,53.79
2022-08-26T08:56:00.987Z,54.13
2022-08-26T08:58:49.851Z,53.65
2022-08-26T09:01:30.513Z,53.42
2022-08-26T09:04:27.248Z,52.70
2022-08-26T09:07:01.393Z,52.38
2022-08-26T09:09:38.954Z,51.74
2022-08-26T09:12:15.757Z,51.28
2022-08-26T09:14:49.759Z,51.19
2022-08-26T09:17:32.867Z,50.83
2022-08-26T09:20:13.212Z,50.01
2022-08-26T09:22:44.387Z,50.53
2022-08-26T09:25:16.850Z,50.24
2022-08-26T09:27:51.508Z,50.53
2022-08-26T09:30:28.558Z,51.01
2022-08-26T09:33:03.853Z,50.49
2022-08-26T09:35:42.966Z,50.31
2022-08-26T09:38:26.709Z,50.18
2022-08-26T09:41:02.294Z,47.83
2022-08-26T09:43:35.529Z,48.78
2022-08-26T09:46:18.488Z,47.78
2022-08-26T09:48:48.621Z,46.92
2022-08-26T09:51:34.433Z,47.84
2022-08-26T09:54:08.186Z,47.61
2022-08-26T09:56:40.230Z,47.22
2022-08-26T09:59:13.645Z,46.82
2022-08-26T10:01:47.224Z,45.93
2022-08-26T10:04:24.921Z,46.47
2022-08-26T10:07:02.172Z,45.95
2022-08-26T10:09:35.715Z,46.23
2022-08-26T10:12:09.483Z,45.06
2022-08-26T10:14:47.203Z,44.89
2022-08-26T10:17:30.904Z,44.18
2022-08-26T10:20:06.308Z,43.87
2022-08-26T10:22:57.966Z,43.89
2022-08-26T10:25:31.876Z,42.60
2022-08-26T10:28:12.276Z,42.95
2022-08-26T10:30:47.498Z,42.86
2022-08-26T10:33:20.083Z,43.08
2022-08-26T10:35:55.608Z,42.61
2022-08-26T10:38:30.522Z,41.64
2022-08-26T10:41:09.696Z,41.63
2022-08-26T10:43:45.281Z,41.53
2022-08-26T10:46:19.308Z,41.92
2022-08-26T10:48:59.908Z,39.90
2022-08-26T10:51:38.564Z,40.14
2022-08-26T10:54:14.056Z,39.64
2022-08-26T10:56:51.339Z,39.50
2022-08-26T10:59:31.296Z,39.45
2022-08-26T11:02:10.205Z,40.05
2022-08-26T11:04:49.206Z,39.77
2022-08-26T11:07:38.016Z,39.45
2022-08-26T11:10:12.330Z,40.12
2022-08-26T11:12:54.310Z,38.72
2022-08-26T11:16:10.172Z,39.52
2022-08-26T11:18:46.332Z,39.63
2022-08-26T11:21:49.547Z,39.39
2022-08-26T11:24:46.603Z,40.40
2022-08-26T11:27:46.947Z,40.38
2022-08-26T11:30:57.003Z,40.21
2022-08-26T11:34:02.572Z,43.90
2022-08-26T11:36:43.586Z,48.41
2022-08-26T11:39:21.898Z,53.61
2022-08-26T11:42:00.045Z,51.90
2022-08-26T11:44:40.612Z,56.16
2022-08-26T11:47:28.830Z,54.04
2022-08-26T11:50:11.129Z,55.12
2022-08-26T11:52:41.575Z,55.78
2022-08-26T11:55:14.415Z,49.17
2022-08-26T11:57:50.342Z,48.09
2022-08-26T12:00:22.981Z,45.24
2022-08-26T12:02:55.687Z,43.04
2022-08-26T12:05:31.129Z,45.41
2022-08-26T12:08:11.619Z,47.55
2022-08-26T12:10:41.974Z,43.77
2022-08-26T12:13:23.987Z,46.78
2022-08-26T12:15:59.018Z,45.90
2022-08-26T12:18:37.400Z,46.51
2022-08-26T12:21:16.019Z,47.09
2022-08-26T12:23:49.882Z,47.06
2022-08-26T12:26:26.790Z,48.00
2022-08-26T12:29:10.002Z,51.84
2022-08-26T12:31:47.912Z,52.82
2022-08-26T12:34:19.781Z,55.74
2022-08-26T12:36:51.760Z,59.87
2022-08-26T12:39:29.699Z,62.76
2022-08-26T12:42:01.277Z,67.70
2022-08-26T12:44:53.816Z,72.46
2022-08-26T12:47:41.784Z,73.63
2022-08-26T12:50:21.642Z,73.48
2022-08-26T12:52:59.023Z,84.01
2022-08-26T12:55:38.438Z,81.05
2022-08-26T12:58:33.659Z,81.32
2022-08-26T13:01:25.070Z,83.44
2022-08-26T13:03:55.023Z,83.14
2022-08-26T13:06:31.692Z,83.86
2022-08-26T13:09:05.136Z,76.81
2022-08-26T13:11:37.872Z,78.00
2022-08-26T13:14:11.202Z,83.65
2022-08-26T13:16:44.250Z,91.64
2022-08-26T13:19:16.287Z,86.85
2022-08-26T13:21:49.666Z,85.94
2022-08-26T13:24:24.392Z,86.32
2022-08-26T13:26:54.891Z,86.85
2022-08-26T13:29:25.461Z,82.56
2022-08-26T13:31:58.864Z,87.14
2022-08-26T13:34:29.731Z,83.81
2022-08-26T13:37:00.549Z,84.16
2022-08-26T13:39:31.074Z,83.74
2022-08-26T13:42:01.833Z,83.22
2022-08-26T13:44:31.824Z,84.10
2022-08-26T13:47:04.732Z,82.82
2022-08-26T13:49:34.681Z,84.18
2022-08-26T13:52:05.130Z,85.25
2022-08-26T13:54:35.136Z,82.75
2022-08-26T13:57:06.064Z,82.17
2022-08-26T13:59:35.973Z,79.63
2022-08-26T14:02:10.104Z,78.83
2022-08-26T14:04:40.123Z,77.90
2022-08-26T14:07:10.368Z,77.49
2022-08-26T14:09:40.659Z,82.38
2022-08-26T14:12:11.170Z,84.94
2022-08-26T14:14:41.394Z,87.21
2022-08-26T14:17:16.811Z,87.38
2022-08-26T14:19:49.450Z,89.07
2022-08-26T14:22:21.257Z,87.33
2022-08-26T14:24:51.783Z,87.67
2022-08-26T14:27:21.711Z,84.85
2022-08-26T14:29:51.656Z,84.95
2022-08-26T14:32:28.749Z,87.34
2022-08-26T14:34:59.008Z,88.05
2022-08-26T14:37:29.230Z,88.50
2022-08-26T14:39:59.173Z,86.10
2022-08-26T14:42:32.508Z,89.90
2022-08-26T14:45:06.704Z,94.17
2022-08-26T14:47:39.125Z,97.59
2022-08-26T14:50:12.653Z,99.26
2022-08-26T14:52:55.893Z,99.96
2022-08-26T14:55:26.102Z,100.00
2022-08-26T14:57:56.069Z,100.00
2022-08-26T15:00:26.033Z,100.00
2022-08-26T15:02:59.540Z,100.00
2022-08-26T15:05:29.577Z,100.00
2022-08-26T15:08:00.493Z,100.00
2022-08-26T15:10:30.359Z,100.00
2022-08-26T15:13:01.167Z,98.18
2022-08-26T15:15:31.342Z,95.79
2022-08-26T15:18:04.165Z,94.61
2022-08-26T15:20:34.197Z,93.18
2022-08-26T15:23:06.579Z,94.72
2022-08-26T15:25:36.598Z,93.64
2022-08-26T15:28:07.132Z,89.14
2022-08-26T15:30:37.044Z,88.23
2022-08-26T15:33:15.062Z,90.67
2022-08-26T15:35:45.992Z,90.07
2022-08-26T15:38:16.145Z,88.25
2022-08-26T15:40:46.271Z,86.67
2022-08-26T15:43:28.848Z,88.38
2022-08-26T15:46:01.180Z,88.94
2022-08-26T15:48:33.963Z,87.99
2022-08-26T15:51:04.443Z,87.66
2022-08-26T15:53:36.297Z,88.48
2022-08-26T15:56:06.913Z,89.66
2022-08-26T15:58:38.177Z,87.13
2022-08-26T16:01:08.729Z,85.31
2022-08-26T16:03:41.995Z,87.18
2022-08-26T16:06:16.308Z,88.39
2022-08-26T16:08:46.518Z,89.08
2022-08-26T16:11:18.788Z,87.54
2022-08-26T16:13:49.808Z,89.13
2022-08-26T16:16:21.541Z,87.80
2022-08-26T16:18:55.138Z,86.82
2022-08-26T16:21:28.625Z,88.30
2022-08-26T16:23:59.578Z,86.82
2022-08-26T16:26:37.578Z,87.40
2022-08-26T16:29:10.237Z,87.27
2022-08-26T16:31:40.694Z,86.77
2022-08-26T16:34:13.609Z,87.50
2022-08-26T16:36:43.812Z,86.84
2022-08-26T16:39:16.643Z,85.33
2022-08-26T16:41:46.965Z,86.59
2022-08-26T16:44:16.843Z,86.88
2022-08-26T16:46:47.380Z,84.86
2022-08-26T16:49:20.466Z,85.40
2022-08-26T16:51:53.354Z,84.84
2022-08-26T16:54:23.261Z,84.26
2022-08-26T16:56:53.409Z,82.69
2022-08-26T16:59:23.496Z,86.04
2022-08-26T17:01:53.770Z,84.34
2022-08-26T17:04:27.037Z,85.95
2022-08-26T17:06:57.191Z,86.14
2022-08-26T17:09:27.619Z,86.56
2022-08-26T17:11:57.993Z,86.42
2022-08-26T17:14:28.332Z,87.33
2022-08-26T17:16:58.270Z,85.60
2022-08-26T17:19:30.977Z,85.82
2022-08-26T17:22:10.081Z,84.25
2022-08-26T17:24:40.879Z,87.00
2022-08-26T17:27:11.503Z,85.67
2022-08-26T17:29:41.361Z,86.08
2022-08-26T17:32:11.213Z,86.68
2022-08-26T17:34:44.682Z,85.21
2022-08-26T17:37:14.722Z,84.62
2022-08-26T17:39:45.205Z,83.40
2022-08-26T17:42:15.220Z,84.85
2022-08-26T17:44:48.369Z,83.93
2022-08-26T17:47:19.073Z,83.59
2022-08-26T17:49:51.718Z,83.16
2022-08-26T17:52:22.706Z,83.32
2022-08-26T17:54:55.811Z,83.32
2022-08-26T17:57:26.590Z,84.32
2022-08-26T17:59:56.934Z,83.73
2022-08-26T18:02:34.349Z,83.58
2022-08-26T18:05:07.395Z,83.20
2022-08-26T18:07:44.142Z,81.35
2022-08-26T18:10:16.484Z,82.95
2022-08-26T18:12:47.050Z,84.49
2022-08-26T18:15:19.112Z,85.60
2022-08-26T18:17:49.504Z,84.44
2022-08-26T18:20:22.923Z,87.36
2022-08-26T18:22:53.386Z,86.37
2022-08-26T18:25:23.442Z,85.57
2022-08-26T18:27:53.546Z,85.11
2022-08-26T18:30:24.716Z,83.45
2022-08-26T18:32:55.398Z,81.43
2022-08-26T18:35:30.004Z,83.04
2022-08-26T18:38:10.391Z,82.64
2022-08-26T18:40:43.255Z,85.63
2022-08-26T18:43:15.186Z,85.35
2022-08-26T18:45:45.837Z,83.47
2022-08-26T18:48:18.470Z,82.44
2022-08-26T18:50:55.060Z,82.43
2022-08-26T18:53:25.331Z,82.08
2022-08-26T18:55:57.425Z,81.99
2022-08-26T18:58:28.649Z,82.32
2022-08-26T19:00:59.086Z,81.43
2022-08-26T19:03:29.411Z,80.41
2022-08-26T19:06:02.697Z,81.41
2022-08-26T19:08:32.891Z,81.30
2022-08-26T19:11:03.819Z,80.67
2022-08-26T19:13:37.664Z,80.89
2022-08-26T19:16:08.176Z,81.33
2022-08-26T19:18:38.733Z,80.21
2022-08-26T19:21:11.643Z,81.38
2022-08-26T19:23:42.075Z,83.07
2022-08-26T19:26:13.091Z,83.12
2022-08-26T19:28:43.987Z,80.81
2022-08-26T19:31:15.701Z,81.15
2022-08-26T19:33:46.814Z,82.59
2022-08-26T19:36:23.529Z,84.43
2022-08-26T19:38:54.241Z,83.58
2022-08-26T19:41:36.783Z,82.88
2022-08-26T19:44:13.609Z,83.19
2022-08-26T19:46:44.159Z,84.34
2022-08-26T19:49:14.192Z,83.10
2022-08-26T19:51:50.041Z,80.46
2022-08-26T19:54:22.639Z,82.06
2022-08-26T19:56:52.933Z,80.52
2022-08-26T19:59:22.831Z,81.03
2022-08-26T20:02:01.039Z,83.20
2022-08-26T20:04:32.390Z,82.29
2022-08-26T20:07:06.272Z,82.90
2022-08-26T20:09:37.943Z,82.49
2022-08-26T20:12:09.712Z,82.04
2022-08-26T20:14:40.159Z,82.18
2022-08-26T20:17:10.546Z,82.29
2022-08-26T20:19:53.271Z,82.89
2022-08-26T20:22:26.358Z,80.93
2022-08-26T20:24:59.035Z,82.64
2022-08-26T20:27:37.804Z,84.18
2022-08-26T20:30:10.350Z,82.14
2022-08-26T20:32:41.128Z,81.82
2022-08-26T20:35:14.479Z,81.07
2022-08-26T20:37:47.658Z,80.92
2022-08-26T20:40:18.003Z,80.47
2022-08-26T20:42:48.193Z,80.23
2022-08-26T20:45:18.135Z,80.77
2022-08-26T20:47:48.380Z,79.78
2022-08-26T20:50:18.972Z,79.04
2022-08-26T20:52:51.359Z,79.30
2022-08-26T20:55:21.797Z,79.22
2022-08-26T20:57:52.022Z,79.45
2022-08-26T21:00:26.456Z,79.61
2022-08-26T21:02:57.026Z,80.31
2022-08-26T21:05:27.333Z,79.31
2022-08-26T21:07:59.829Z,79.01
2022-08-26T21:10:31.569Z,78.57
2022-08-26T21:13:02.773Z,79.20
2022-08-26T21:15:33.025Z,79.20
2022-08-26T21:18:03.556Z,79.14
2022-08-26T21:20:33.954Z,78.74
2022-08-26T21:23:08.120Z,81.00
2022-08-26T21:25:38.010Z,79.24
2022-08-26T21:28:08.391Z,79.73
2022-08-26T21:30:40.890Z,79.13
2022-08-26T21:33:11.721Z,79.88
2022-08-26T21:35:41.788Z,78.80
2022-08-26T21:38:14.580Z,78.45
2022-08-26T21:40:44.534Z,79.03
2022-08-26T21:43:34.844Z,79.31
2022-08-26T21:46:11.475Z,79.20
2022-08-26T21:48:44.254Z,78.47
2022-08-26T21:51:17.858Z,77.61
2022-08-26T21:53:52.978Z,77.59
2022-08-26T21:56:24.987Z,77.29
2022-08-26T21:58:55.916Z,77.08
2022-08-26T22:01:27.867Z,77.02
2022-08-26T22:04:03.201Z,76.73
2022-08-26T22:06:35.020Z,80.40
2022-08-26T22:09:07.987Z,79.21
2022-08-26T22:11:40.731Z,77.11
2022-08-26T22:14:13.048Z,78.65
2022-08-26T22:16:50.137Z,77.34
2022-08-26T22:19:23.488Z,77.16
2022-08-26T22:21:55.279Z,78.93
2022-08-26T22:24:29.588Z,78.54
2022-08-26T22:27:00.761Z,79.69
2022-08-26T22:29:32.365Z,79.74
2022-08-26T22:32:02.864Z,79.70
2022-08-26T22:34:33.440Z,79.50
2022-08-26T22:37:03.631Z,80.10
2022-08-26T22:39:36.261Z,79.39
2022-08-26T22:42:07.502Z,78.60
2022-08-26T22:44:41.289Z,79.15
2022-08-26T22:47:14.086Z,78.81
2022-08-26T22:49:44.052Z,80.00
2022-08-26T22:52:16.947Z,79.63
2022-08-26T22:54:50.971Z,80.30
2022-08-26T22:57:25.141Z,80.32
2022-08-26T22:59:55.628Z,79.98
2022-08-26T23:02:26.187Z,80.44
2022-08-26T23:04:56.579Z,79.47
2022-08-26T23:07:27.217Z,79.72
2022-08-26T23:10:00.170Z,78.90
2022-08-26T23:12:31.635Z,79.29
2022-08-26T23:15:03.905Z,80.75
2022-08-26T23:17:35.524Z,79.10
2022-08-26T23:20:07.640Z,80.47
2022-08-26T23:22:39.923Z,79.26
2022-08-26T23:25:18.075Z,78.64
2022-08-26T23:28:06.838Z,78.37
2022-08-26T23:31:17.473Z,78.99
2022-08-26T23:34:19.451Z,78.50
2022-08-26T23:36:58.565Z,79.33
2022-08-26T23:39:36.980Z,80.75
2022-08-26T23:42:14.871Z,78.76
2022-08-26T23:44:45.837Z,78.73
2022-08-26T23:47:16.865Z,78.08
2022-08-26T23:49:47.256Z,77.72
2022-08-26T23:52:30.187Z,78.19
2022-08-26T23:55:08.793Z,78.31
2022-08-26T23:57:46.431Z,80.29
